Time;durP1;ratioP1;P1;durP2;ratioP2;P2;SDS_P1;SDS_P2;PMS_P1;PMS_P2;Temp;Humidity;BMP_temperature;BMP_pressure;BME280_temperature;BME280_humidity;BME280_pressure;Samples;Min_cycle;Max_cycle;Signal;HPM_P1;HPM_P2
2023/06/24 00:02:24;;;;;;;3.30;3.00;;;;;;;20.50;63.87;96491.91;4987325;28;20693;-88
2023/06/24 00:04:51;;;;;;;3.53;3.22;;;;;;;20.49;64.16;96495.53;4990805;28;20223;-88
2023/06/24 00:07:17;;;;;;;3.45;3.17;;;;;;;20.46;64.39;96488.13;4992574;28;20854;-87
2023/06/24 00:09:44;;;;;;;3.00;2.80;;;;;;;20.49;64.11;96498.97;4993199;28;20212;-87
2023/06/24 00:12:10;;;;;;;3.20;3.00;;;;;;;20.48;64.25;96491.34;4990098;28;20207;-87
2023/06/24 00:14:38;;;;;;;3.55;3.25;;;;;;;20.48;63.88;96493.94;4973327;28;20231;-86
2023/06/24 00:17:07;;;;;;;2.97;2.78;;;;;;;20.47;63.71;96490.53;4986022;28;20673;-88
2023/06/24 00:19:34;;;;;;;5.25;4.80;;;;;;;20.47;63.67;96489.72;4992891;28;20278;-87
2023/06/24 00:22:03;;;;;;;9.52;8.63;;;;;;;20.42;65.19;96494.81;4992893;28;20209;-87
2023/06/24 00:24:29;;;;;;;4.38;3.97;;;;;;;20.44;64.20;96493.56;4992327;28;20228;-87
2023/06/24 00:26:56;;;;;;;3.75;3.45;;;;;;;20.35;64.94;96485.19;4985249;28;20217;-86
2023/06/24 00:29:23;;;;;;;3.63;3.33;;;;;;;20.35;64.57;96482.56;4992391;28;20593;-87
2023/06/24 00:31:49;;;;;;;3.78;3.42;;;;;;;20.40;64.18;96492.41;4992513;28;20203;-86
2023/06/24 00:34:19;;;;;;;3.40;3.10;;;;;;;20.37;64.40;96492.84;4993014;28;20761;-88
2023/06/24 00:36:47;;;;;;;4.93;3.17;;;;;;;20.35;64.66;96487.81;4993706;28;20219;-86
2023/06/24 00:39:15;;;;;;;3.10;2.90;;;;;;;20.38;64.19;96486.59;4993466;28;20243;-88
2023/06/24 00:41:41;;;;;;;3.30;3.00;;;;;;;20.31;64.45;96483.22;4992655;28;20196;-87
2023/06/24 00:44:08;;;;;;;3.45;3.15;;;;;;;20.28;64.45;96481.81;4993508;28;20211;-87
2023/06/24 00:46:39;;;;;;;3.60;3.30;;;;;;;20.33;64.07;96478.56;4992628;28;20210;-87
2023/06/24 00:49:07;;;;;;;3.25;3.05;;;;;;;20.31;64.45;96478.78;4992714;28;20223;-87
2023/06/24 00:51:36;;;;;;;3.42;3.10;;;;;;;20.34;64.23;96474.94;4993712;28;20211;-87
2023/06/24 00:54:08;;;;;;;3.33;3.13;;;;;;;20.38;64.02;96475.34;4993041;28;20266;-87
2023/06/24 00:56:38;;;;;;;3.08;2.70;;;;;;;20.31;63.94;96470.13;4992566;28;20219;-86
2023/06/24 00:59:07;;;;;;;3.38;3.08;;;;;;;20.30;63.82;96468.53;4984802;28;20302;-86
2023/06/24 01:01:35;;;;;;;3.75;3.00;;;;;;;20.31;63.68;96465.69;4992036;28;20199;-87
2023/06/24 01:04:02;;;;;;;3.05;2.85;;;;;;;20.28;63.80;96460.09;4993002;28;20204;-86
2023/06/24 01:06:30;;;;;;;3.38;2.85;;;;;;;20.23;63.65;96459.94;4991670;28;20673;-86
2023/06/24 01:08:56;;;;;;;3.80;2.78;;;;;;;20.24;63.50;96457.09;4991987;28;20724;-88
2023/06/24 01:11:27;;;;;;;3.10;2.90;;;;;;;20.22;63.57;96459.13;4992379;28;20203;-87
2023/06/24 01:14:10;;;;;;;3.28;2.85;;;;;;;20.20;63.91;96461.19;4975085;28;20224;-86
2023/06/24 01:17:12;;;;;;;;;;;;;;;;;;;;;
2023/06/24 01:20:31;;;;;;;;;;;;;;;;;;;;;
2023/06/24 01:23:51;;;;;;;3.15;2.90;;;;;;;20.13;64.59;96447.38;4980474;28;20203;-86
2023/06/24 01:26:53;;;;;;;3.83;3.10;;;;;;;20.12;64.18;96456.22;4974886;28;20223;-87
2023/06/24 01:30:08;;;;;;;3.00;2.80;;;;;;;20.09;64.45;96448.00;4973074;28;20223;-87
2023/06/24 01:32:44;;;;;;;3.38;3.10;;;;;;;20.11;64.77;96448.59;4909946;29;20209;-87
2023/06/24 01:35:16;;;;;;;3.75;2.85;;;;;;;20.11;64.71;96445.97;4927267;29;20398;-86
2023/06/24 01:37:47;;;;;;;3.38;3.08;;;;;;;20.07;64.69;96447.41;4969883;28;20731;-86
2023/06/24 01:40:21;;;;;;;3.10;2.80;;;;;;;20.12;64.32;96453.59;4991485;28;20203;-86
2023/06/24 01:42:49;;;;;;;3.20;3.00;;;;;;;20.12;63.76;96450.19;4991341;28;20199;-87
2023/06/24 01:45:20;;;;;;;3.17;2.88;;;;;;;20.10;63.42;96445.19;4990486;28;20260;-88
2023/06/24 01:47:49;;;;;;;3.38;3.13;;;;;;;20.13;63.56;96443.94;4991225;28;20241;-87
2023/06/24 01:50:22;;;;;;;3.17;2.88;;;;;;;20.13;63.77;96442.13;4991738;28;20214;-87
2023/06/24 01:52:54;;;;;;;3.58;2.90;;;;;;;20.15;63.58;96447.16;4990573;28;20211;-87
2023/06/24 01:55:22;;;;;;;3.22;2.72;;;;;;;20.13;63.81;96447.38;4989124;28;20219;-88
2023/06/24 01:57:50;;;;;;;3.08;2.78;;;;;;;20.20;63.57;96440.28;4981267;28;20828;-88
2023/06/24 02:00:18;;;;;;;3.63;3.05;;;;;;;20.13;63.94;96449.19;4991605;28;20210;-86
2023/06/24 02:02:47;;;;;;;3.25;2.95;;;;;;;20.01;64.27;96436.78;4991162;28;20199;-87
2023/06/24 02:05:16;;;;;;;3.50;2.95;;;;;;;19.98;64.61;96431.22;4991058;28;20196;-86
2023/06/24 02:07:43;;;;;;;3.10;2.85;;;;;;;19.99;64.17;96438.84;4991029;28;20219;-86
2023/06/24 02:10:11;;;;;;;4.55;2.95;;;;;;;20.01;63.96;96433.41;4991403;28;20211;-87
2023/06/24 02:12:41;;;;;;;3.30;3.00;;;;;;;19.96;64.74;96434.03;4983893;28;20204;-86
2023/06/24 02:15:10;;;;;;;3.45;3.15;;;;;;;19.91;65.33;96433.88;4972198;28;20227;-86
2023/06/24 02:17:38;;;;;;;3.33;3.03;;;;;;;19.88;65.82;96430.88;4990990;28;20211;-86
2023/06/24 02:20:10;;;;;;;3.05;2.85;;;;;;;19.90;65.42;96423.63;4986322;28;20716;-86
2023/06/24 02:22:38;;;;;;;3.90;3.03;;;;;;;19.91;64.56;96439.09;4971427;28;20282;-87
2023/06/24 02:25:07;;;;;;;2.88;2.67;;;;;;;19.93;63.85;96437.06;4971792;28;20379;-86
2023/06/24 02:27:35;;;;;;;3.08;2.80;;;;;;;19.92;63.76;96435.47;4983089;28;20723;-86
2023/06/24 02:30:03;;;;;;;3.08;2.78;;;;;;;19.96;63.50;96435.84;4991048;28;20207;-86
2023/06/24 02:32:29;;;;;;;3.50;3.10;;;;;;;19.95;63.42;96435.06;4990499;28;20208;-87
2023/06/24 02:34:57;;;;;;;2.90;2.70;;;;;;;19.90;63.24;96441.94;4990954;28;20234;-87
2023/06/24 02:37:25;;;;;;;3.40;3.10;;;;;;;19.93;63.36;96439.69;4992092;28;20202;-86
2023/06/24 02:39:52;;;;;;;3.25;2.95;;;;;;;19.90;63.19;96444.53;4994861;28;20203;-86
2023/06/24 02:42:18;;;;;;;2.88;2.67;;;;;;;19.95;63.09;96440.28;4994447;28;20214;-87
2023/06/24 02:44:44;;;;;;;3.00;2.80;;;;;;;19.89;63.23;96437.72;4994432;28;20207;-86
2023/06/24 02:47:15;;;;;;;2.83;2.63;;;;;;;19.87;63.14;96440.53;4993767;28;20229;-87
2023/06/24 02:49:46;;;;;;;4.60;2.85;;;;;;;19.81;63.16;96445.84;4993640;28;20227;-87
2023/06/24 02:52:13;;;;;;;3.20;2.90;;;;;;;19.85;63.19;96452.22;4977878;28;20241;-87
2023/06/24 02:54:42;;;;;;;3.20;2.90;;;;;;;19.89;63.00;96448.16;4989328;28;20227;-87
2023/06/24 02:57:09;;;;;;;3.53;3.10;;;;;;;19.88;62.86;96462.25;4993988;28;20207;-86
2023/06/24 02:59:38;;;;;;;3.00;2.80;;;;;;;19.70;63.36;96465.59;4993991;28;20232;-86
2023/06/24 03:02:05;;;;;;;3.40;3.10;;;;;;;19.72;63.12;96466.19;4993825;28;20203;-86
2023/06/24 03:04:31;;;;;;;3.45;2.95;;;;;;;19.77;62.99;96465.56;4994294;28;20211;-87
2023/06/24 03:06:59;;;;;;;3.13;2.90;;;;;;;19.73;62.97;96465.19;4993690;28;20327;-86
2023/06/24 03:09:28;;;;;;;3.58;2.70;;;;;;;19.75;63.09;96467.59;4993788;28;20273;-87
2023/06/24 03:11:56;;;;;;;3.47;3.13;;;;;;;19.73;63.16;96459.16;4994150;28;20214;-86
2023/06/24 03:14:22;;;;;;;3.30;3.00;;;;;;;19.73;63.08;96461.75;4994204;28;20219;-87
2023/06/24 03:16:48;;;;;;;2.88;2.67;;;;;;;19.78;63.06;96465.34;4990192;28;20226;-86
2023/06/24 03:19:15;;;;;;;3.17;2.97;;;;;;;19.79;63.02;96477.41;4993027;28;20223;-86
2023/06/24 03:21:41;;;;;;;3.17;2.90;;;;;;;19.85;62.72;96479.16;4977134;28;20204;-86
2023/06/24 03:24:08;;;;;;;3.30;3.00;;;;;;;19.88;62.95;96480.53;4981265;28;20211;-86
2023/06/24 03:26:35;;;;;;;3.30;3.00;;;;;;;19.84;62.59;96484.59;4986349;28;20203;-86
2023/06/24 03:29:03;;;;;;;3.25;2.90;;;;;;;19.80;62.59;96492.06;4993203;28;20230;-87
2023/06/24 03:31:30;;;;;;;3.13;2.83;;;;;;;19.75;62.46;96491.09;4989208;28;20232;-87
2023/06/24 03:33:56;;;;;;;3.05;2.75;;;;;;;19.80;62.16;96493.88;4989959;28;20722;-86
2023/06/24 03:36:23;;;;;;;3.95;2.80;;;;;;;19.81;62.23;96483.22;4993060;28;20246;-86
2023/06/24 03:38:50;;;;;;;2.97;2.67;;;;;;;19.80;62.70;96488.66;4993422;28;20315;-86
2023/06/24 03:41:16;;;;;;;3.20;2.90;;;;;;;19.83;62.45;96489.00;4993310;28;20739;-86
2023/06/24 03:43:44;;;;;;;3.33;3.03;;;;;;;19.87;62.59;96490.19;4993379;28;20199;-86
2023/06/24 03:46:12;;;;;;;4.93;2.80;;;;;;;19.84;62.65;96495.03;4992629;28;20282;-87
2023/06/24 03:48:39;;;;;;;3.28;2.97;;;;;;;19.79;62.79;96498.31;4979338;28;20241;-87
2023/06/24 03:51:05;;;;;;;3.13;2.85;;;;;;;19.76;63.04;96501.34;4974778;28;20212;-87
2023/06/24 03:53:32;;;;;;;3.25;2.95;;;;;;;19.74;62.63;96495.53;4991909;28;20200;-87
2023/06/24 03:55:59;;;;;;;3.42;3.13;;;;;;;19.74;62.51;96492.13;4992336;28;20254;-86
2023/06/24 03:58:25;;;;;;;3.38;2.95;;;;;;;19.65;62.82;96489.75;4992735;28;20229;-87
2023/06/24 04:00:52;;;;;;;3.38;2.83;;;;;;;19.65;62.62;96486.31;4992787;28;20222;-86
2023/06/24 04:03:19;;;;;;;3.00;2.80;;;;;;;19.70;62.74;96485.69;4993050;28;20208;-87
2023/06/24 04:05:46;;;;;;;3.35;2.50;;;;;;;19.77;62.68;96492.50;4993265;28;20203;-86
2023/06/24 04:08:12;;;;;;;5.72;3.10;;;;;;;19.83;62.50;96491.63;4991324;28;20219;-87
2023/06/24 04:10:39;;;;;;;4.05;3.00;;;;;;;19.84;62.83;96489.81;4981392;28;20196;-86
2023/06/24 04:13:05;;;;;;;4.13;2.78;;;;;;;19.85;62.57;96497.44;4986405;28;20393;-87
2023/06/24 04:15:31;;;;;;;3.25;2.97;;;;;;;19.81;62.87;96487.66;4983843;28;20219;-87
2023/06/24 04:17:58;;;;;;;2.90;2.67;;;;;;;19.86;62.46;96490.41;4982496;28;20212;-86
2023/06/24 04:20:26;;;;;;;3.15;2.95;;;;;;;19.89;62.41;96492.59;4982338;28;20196;-87
2023/06/24 04:22:54;;;;;;;3.67;3.00;;;;;;;19.92;62.43;96495.59;4984331;28;20196;-86
2023/06/24 04:25:20;;;;;;;3.03;2.83;;;;;;;19.95;62.48;96499.59;4981623;28;20227;-87
2023/06/24 04:27:47;;;;;;;3.17;2.88;;;;;;;19.99;62.19;96496.34;4982231;28;20220;-87
2023/06/24 04:30:14;;;;;;;4.32;2.95;;;;;;;20.11;67.57;96506.13;4982459;28;20636;-86
2023/06/24 04:32:40;;;;;;;4.03;2.75;;;;;;;20.33;63.76;96502.09;4980977;28;20199;-86
2023/06/24 04:35:07;;;;;;;3.83;3.10;;;;;;;20.38;61.47;96504.13;4983047;28;20715;-86
2023/06/24 04:37:35;;;;;;;3.00;2.80;;;;;;;20.26;60.35;96501.34;4990687;28;20296;-87
2023/06/24 04:40:01;;;;;;;2.97;2.78;;;;;;;20.21;60.52;96509.03;4991130;28;20720;-87
2023/06/24 04:42:28;;;;;;;3.08;2.80;;;;;;;20.21;61.13;96509.84;4989880;28;20687;-87
2023/06/24 04:44:54;;;;;;;3.03;2.75;;;;;;;20.19;61.05;96503.25;4981902;28;20196;-87
2023/06/24 04:47:20;;;;;;;3.03;2.83;;;;;;;20.21;60.90;96519.50;4986602;28;20227;-87
2023/06/24 04:49:47;;;;;;;3.30;3.00;;;;;;;20.19;60.89;96521.56;4972685;28;20204;-87
2023/06/24 04:52:13;;;;;;;2.95;2.70;;;;;;;20.15;60.80;96517.75;4971030;28;20670;-88
2023/06/24 04:54:41;;;;;;;3.58;3.28;;;;;;;20.16;60.82;96525.38;4971170;28;20215;-87
2023/06/24 04:57:10;;;;;;;2.92;2.72;;;;;;;20.15;60.81;96518.56;4971985;28;20218;-87
2023/06/24 04:59:38;;;;;;;3.08;2.88;;;;;;;20.17;61.38;96518.34;4972190;28;20278;-87
2023/06/24 05:02:04;;;;;;;3.50;3.10;;;;;;;20.16;61.28;96521.97;4972231;28;20208;-87
2023/06/24 05:04:31;;;;;;;2.90;2.70;;;;;;;20.17;61.69;96524.38;4972326;28;20219;-87
2023/06/24 05:06:57;;;;;;;3.35;3.10;;;;;;;20.19;61.70;96521.56;4972256;28;20627;-88
2023/06/24 05:09:23;;;;;;;3.20;3.00;;;;;;;20.19;61.60;96522.34;4971817;28;20239;-87
2023/06/24 05:11:51;;;;;;;3.10;2.90;;;;;;;20.25;61.43;96518.06;4971863;28;20651;-87
2023/06/24 05:14:18;;;;;;;3.40;3.03;;;;;;;20.30;61.51;96516.41;4991487;28;20217;-88
2023/06/24 05:16:45;;;;;;;3.45;3.15;;;;;;;20.35;61.29;96521.81;4990944;28;20233;-87
2023/06/24 05:19:16;;;;;;;3.42;3.13;;;;;;;20.37;61.22;96516.41;4990703;28;20223;-87
2023/06/24 05:21:42;;;;;;;2.75;2.55;;;;;;;20.44;61.26;96522.34;4990958;28;20204;-87
2023/06/24 05:24:11;;;;;;;3.20;2.83;;;;;;;20.48;61.02;96517.50;4990476;28;20218;-87
2023/06/24 05:26:38;;;;;;;3.22;2.90;;;;;;;20.48;60.88;96517.50;4984370;28;20204;-87
2023/06/24 05:29:06;;;;;;;3.42;3.13;;;;;;;20.53;60.66;96513.22;4990795;28;20223;-88
2023/06/24 05:31:32;;;;;;;3.40;3.10;;;;;;;20.60;60.42;96521.78;4990888;28;20207;-88
2023/06/24 05:33:58;;;;;;;3.88;2.85;;;;;;;20.54;61.09;96521.88;4990876;28;20262;-87
2023/06/24 05:36:27;;;;;;;2.70;2.50;;;;;;;20.57;60.11;96526.69;4990747;28;20281;-87
2023/06/24 05:38:54;;;;;;;2.90;2.70;;;;;;;20.63;59.49;96531.03;4990434;28;20408;-87
2023/06/24 05:41:20;;;;;;;2.83;2.63;;;;;;;20.54;58.68;96527.91;4982499;28;20200;-87
2023/06/24 05:43:47;;;;;;;2.80;2.60;;;;;;;20.58;58.80;96531.69;4990378;28;20206;-87
2023/06/24 05:46:15;;;;;;;3.03;2.83;;;;;;;20.61;58.78;96533.84;4990119;28;20210;-87
2023/06/24 05:48:42;;;;;;;4.82;3.08;;;;;;;20.64;58.58;96530.00;4988522;28;20234;-88
2023/06/24 05:51:08;;;;;;;2.70;2.50;;;;;;;20.65;58.43;96526.38;4991009;28;20767;-88
2023/06/24 05:53:35;;;;;;;3.92;2.72;;;;;;;20.73;58.62;96533.97;4990881;28;20203;-87
2023/06/24 05:56:01;;;;;;;2.95;2.75;;;;;;;20.82;58.46;96544.94;4990324;28;20234;-87
2023/06/24 05:58:28;;;;;;;3.08;2.80;;;;;;;20.87;58.42;96534.63;4990757;28;20230;-87
2023/06/24 06:00:55;;;;;;;4.20;3.13;;;;;;;20.89;57.90;96546.47;4990341;28;20291;-87
2023/06/24 06:03:22;;;;;;;2.85;2.65;;;;;;;20.81;57.20;96546.75;4988964;28;20204;-87
2023/06/24 06:05:49;;;;;;;3.15;2.92;;;;;;;20.84;57.33;96551.56;4990582;28;20669;-87
2023/06/24 06:08:15;;;;;;;2.88;2.67;;;;;;;20.89;57.50;96553.53;4990710;28;20231;-86
2023/06/24 06:10:42;;;;;;;4.25;2.80;;;;;;;20.89;57.67;96549.09;4990898;28;20562;-87
2023/06/24 06:13:08;;;;;;;3.22;3.00;;;;;;;20.90;57.36;96552.53;4993698;28;20203;-87
2023/06/24 06:15:34;;;;;;;3.15;2.85;;;;;;;20.93;56.90;96547.66;4994201;28;20223;-87
2023/06/24 06:18:01;;;;;;;3.40;3.10;;;;;;;20.95;56.78;96547.44;4994731;28;20227;-87
2023/06/24 06:20:28;;;;;;;3.13;2.90;;;;;;;20.97;56.52;96545.41;4991283;28;20199;-87
2023/06/24 06:22:55;;;;;;;2.97;2.78;;;;;;;21.04;56.63;96540.88;4994428;28;20242;-87
2023/06/24 06:25:23;;;;;;;3.20;2.90;;;;;;;21.11;56.59;96543.44;4994399;28;20221;-88
2023/06/24 06:27:50;;;;;;;4.28;3.40;;;;;;;21.17;56.46;96543.34;4993856;28;20226;-87
2023/06/24 06:30:17;;;;;;;3.15;2.90;;;;;;;21.29;55.91;96533.78;4994486;28;20245;-87
2023/06/24 06:32:44;;;;;;;3.03;2.80;;;;;;;21.34;55.57;96540.97;4994193;28;20243;-87
2023/06/24 06:35:10;;;;;;;2.83;2.63;;;;;;;21.48;55.22;96541.59;4992873;28;20211;-87
2023/06/24 06:37:38;;;;;;;3.53;3.22;;;;;;;21.58;55.19;96534.78;4993651;28;20206;-87
2023/06/24 06:40:05;;;;;;;2.75;2.55;;;;;;;21.73;54.35;96531.78;4994708;28;20203;-87
2023/06/24 06:42:32;;;;;;;3.78;3.08;;;;;;;21.75;54.01;96539.41;4994261;28;20207;-87
2023/06/24 06:44:58;;;;;;;2.97;2.78;;;;;;;21.80;53.69;96540.34;4993733;28;20218;-87
2023/06/24 06:47:25;;;;;;;3.47;3.17;;;;;;;21.91;53.70;96539.59;4993626;28;20210;-88
2023/06/24 06:49:52;;;;;;;3.72;2.67;;;;;;;21.90;52.29;96532.75;4993767;28;20210;-87
2023/06/24 06:52:18;;;;;;;2.40;2.20;;;;;;;21.96;52.30;96538.91;4991236;28;20578;-87
2023/06/24 06:54:46;;;;;;;2.80;2.60;;;;;;;22.09;51.61;96544.00;4979408;28;20208;-87
2023/06/24 06:57:12;;;;;;;3.30;2.55;;;;;;;22.15;51.35;96532.59;4973975;28;20655;-86
2023/06/24 06:59:39;;;;;;;3.38;2.72;;;;;;;22.25;51.42;96534.66;4973820;28;20235;-87
2023/06/24 07:02:06;;;;;;;2.80;2.60;;;;;;;22.24;51.04;96535.69;4973651;28;20340;-86
2023/06/24 07:04:33;;;;;;;2.88;2.67;;;;;;;22.34;51.52;96528.84;4974662;28;20472;-86
2023/06/24 07:06:59;;;;;;;3.40;2.83;;;;;;;22.40;51.08;96530.56;4973697;28;20281;-86
2023/06/24 07:09:26;;;;;;;5.28;2.70;;;;;;;22.24;51.06;96530.44;4991068;28;20238;-86
2023/06/24 07:11:53;;;;;;;2.60;2.40;;;;;;;22.25;51.21;96530.22;4992600;28;20211;-86
2023/06/24 07:14:20;;;;;;;5.38;3.13;;;;;;;22.32;50.71;96536.16;4992732;28;20203;-87
2023/06/24 07:16:46;;;;;;;3.28;2.83;;;;;;;22.32;49.81;96536.16;4993178;28;20721;-86
2023/06/24 07:19:13;;;;;;;3.75;2.97;;;;;;;22.26;49.37;96526.56;4992909;28;20242;-88
2023/06/24 07:21:42;;;;;;;4.45;2.60;;;;;;;22.26;49.47;96526.56;4992454;28;20203;-86
2023/06/24 07:24:08;;;;;;;3.20;2.47;;;;;;;22.26;49.27;96531.03;4990718;28;20211;-87
2023/06/24 07:26:34;;;;;;;3.58;3.28;;;;;;;22.23;49.07;96529.66;4992939;28;20227;-86
2023/06/24 07:29:02;;;;;;;3.10;2.83;;;;;;;22.22;50.03;96535.91;4992820;28;20227;-87
2023/06/24 07:31:29;;;;;;;2.60;2.40;;;;;;;22.21;50.33;96534.31;4992637;28;20210;-87
2023/06/24 07:41:30;;;;;;;;;;;;;;;;;;;;;
2023/06/24 07:43:59;;;;;;;2.80;2.60;;;;;;;22.28;50.42;96531.59;4848902;28;20212;-87
2023/06/24 07:46:27;;;;;;;4.43;2.92;;;;;;;22.43;49.73;96529.31;4972884;28;20215;-87
2023/06/24 07:48:54;;;;;;;3.13;2.92;;;;;;;22.47;49.83;96535.72;4972805;28;20239;-87
2023/06/24 07:51:20;;;;;;;2.80;2.60;;;;;;;22.53;49.80;96532.16;4973010;28;20211;-86
2023/06/24 07:53:50;;;;;;;2.70;2.50;;;;;;;22.64;50.23;96533.22;4972956;28;20677;-86
2023/06/24 07:56:18;;;;;;;2.67;2.47;;;;;;;22.64;50.31;96536.63;4978112;28;20617;-87
2023/06/24 07:59:01;;;;;;;3.42;3.05;;;;;;;22.56;50.76;96544.84;4992112;28;20223;-86
2023/06/24 08:08:24;;;;;;;4.45;3.90;;;;;;;22.41;51.44;96547.13;4919141;28;20250;-87
2023/06/24 08:24:50;;;;;;;4.43;4.03;;;;;;;22.72;51.22;96543.34;4879457;29;20211;-87
2023/06/24 08:31:34;;;;;;;4.20;3.58;;;;;;;22.90;50.25;96543.25;4879013;29;20871;-87
2023/06/24 08:40:51;;;;;;;3.88;3.58;;;;;;;23.67;48.25;96529.81;4822254;29;20221;-87
2023/06/24 08:43:17;;;;;;;3.30;3.00;;;;;;;23.84;47.42;96527.22;4930826;29;20404;-87
2023/06/24 08:45:44;;;;;;;4.35;3.35;;;;;;;23.74;46.45;96526.00;4953490;28;20219;-87
2023/06/24 08:48:11;;;;;;;3.40;3.20;;;;;;;23.87;46.99;96535.41;4990837;28;20231;-86
2023/06/24 08:50:44;;;;;;;3.00;2.80;;;;;;;24.01;46.61;96528.03;4990948;28;20200;-86
2023/06/24 08:53:19;;;;;;;3.75;3.42;;;;;;;23.90;45.66;96527.06;4990931;28;20222;-87
2023/06/24 08:55:53;;;;;;;3.45;3.15;;;;;;;24.10;46.34;96530.03;4991710;28;20228;-86
2023/06/24 08:58:22;;;;;;;4.85;4.45;;;;;;;24.30;46.28;96524.31;4991800;28;20227;-88
2023/06/24 09:00:48;;;;;;;5.25;4.75;;;;;;;24.21;46.78;96524.94;4990061;28;20207;-87
2023/06/24 09:03:17;;;;;;;4.25;3.85;;;;;;;24.13;45.85;96518.22;4991367;28;20556;-87
2023/06/24 09:05:46;;;;;;;4.07;3.78;;;;;;;24.08;46.51;96524.22;4991125;28;20211;-87
2023/06/24 09:08:12;;;;;;;4.18;3.88;;;;;;;24.29;45.11;96522.72;4990661;28;20227;-87
2023/06/24 09:10:39;;;;;;;5.35;4.85;;;;;;;24.60;45.39;96523.19;4991020;28;20230;-87
2023/06/24 09:13:07;;;;;;;4.85;3.67;;;;;;;24.87;44.97;96521.44;4990262;28;20206;-87
2023/06/24 09:15:36;;;;;;;4.55;3.90;;;;;;;25.06;44.67;96521.97;4990528;28;20939;-86
2023/06/24 09:18:04;;;;;;;3.90;3.60;;;;;;;25.04;45.32;96524.06;4985951;28;20279;-87
2023/06/24 09:20:31;;;;;;;3.72;3.42;;;;;;;24.53;43.03;96520.72;4989393;28;20223;-87
2023/06/24 09:23:02;;;;;;;4.55;4.13;;;;;;;24.40;43.44;96521.88;4990298;28;20311;-86
2023/06/24 09:25:29;;;;;;;3.55;3.35;;;;;;;24.16;44.30;96515.13;4989096;28;20564;-87
2023/06/24 09:27:59;;;;;;;3.70;3.40;;;;;;;23.82;43.59;96519.56;4983026;28;20228;-87
2023/06/24 09:30:26;;;;;;;3.88;3.55;;;;;;;23.84;44.71;96514.88;4990336;28;20211;-87
2023/06/24 09:33:31;;;;;;;;;;;;;;;;;;;;;
2023/06/24 09:40:14;;;;;;;;;;;;;;;;;;;;;
2023/06/24 09:46:36;;;;;;;3.85;3.38;;;;;;;25.28;43.33;96500.91;4775889;29;20206;-87
2023/06/24 09:53:11;;;;;;;4.15;3.75;;;;;;;24.87;43.82;96516.19;4894318;29;20217;-87
2023/06/24 09:59:50;;;;;;;;;;;;;;;;;;;;;
2023/06/24 10:03:26;;;;;;;3.60;3.30;;;;;;;24.99;43.79;96509.00;4963107;28;20212;-86
2023/06/24 10:13:27;;;;;;;;;;;;;;;;;;;;;
2023/06/24 10:16:30;;;;;;;3.60;3.30;;;;;;;24.11;45.86;96489.53;4945774;28;20223;-87
2023/06/24 10:19:01;;;;;;;3.40;3.20;;;;;;;24.80;42.07;96497.13;4937725;28;20238;-87
2023/06/24 10:21:45;;;;;;;3.97;3.67;;;;;;;25.03;39.76;96481.09;4981810;28;20192;-87
2023/06/24 10:24:13;;;;;;;3.58;3.28;;;;;;;25.28;40.23;96483.22;4988055;28;20231;-87
2023/06/24 10:26:40;;;;;;;3.85;3.55;;;;;;;25.55;40.48;96467.44;4967293;28;20226;-87
2023/06/24 10:29:12;;;;;;;3.72;3.42;;;;;;;25.70;39.07;96461.53;4989327;28;20743;-88
2023/06/24 10:31:53;;;;;;;4.32;4.03;;;;;;;25.94;39.24;96465.44;4989195;28;20223;-87
2023/06/24 10:34:28;;;;;;;3.75;3.45;;;;;;;26.25;38.46;96457.72;4988989;28;20234;-87
2023/06/24 10:36:55;;;;;;;15.65;13.43;;;;;;;26.34;38.63;96453.59;4987678;28;20219;-87
2023/06/24 10:39:40;;;;;;;5.90;5.28;;;;;;;26.51;38.80;96454.22;4988495;28;20263;-87
2023/06/24 10:42:38;;;;;;;9.88;8.90;;;;;;;26.62;37.71;96455.88;4989493;28;20206;-87
2023/06/24 10:45:15;;;;;;;3.88;3.58;;;;;;;26.63;36.23;96451.38;4989443;28;20206;-86
2023/06/24 10:47:43;;;;;;;3.95;3.65;;;;;;;26.58;36.36;96446.06;4988776;28;20204;-87
2023/06/24 10:50:14;;;;;;;3.10;2.90;;;;;;;26.75;37.80;96444.03;4989195;28;20712;-87
2023/06/24 10:52:41;;;;;;;4.03;3.72;;;;;;;26.78;36.46;96433.75;4988938;28;20222;-87
2023/06/24 10:55:10;;;;;;;3.72;3.42;;;;;;;26.89;36.04;96433.78;4983710;28;20209;-87
2023/06/24 10:57:36;;;;;;;3.42;3.13;;;;;;;26.90;35.57;96430.09;4988909;28;20230;-87
2023/06/24 11:00:04;;;;;;;3.10;2.90;;;;;;;27.23;35.64;96426.25;4992862;28;20828;-87
2023/06/24 11:02:31;;;;;;;3.08;2.78;;;;;;;27.35;34.06;96424.16;4992025;28;20227;-87
2023/06/24 11:04:59;;;;;;;3.35;3.05;;;;;;;26.93;33.90;96425.09;4992779;28;20206;-87
2023/06/24 11:07:26;;;;;;;3.25;2.95;;;;;;;26.78;34.14;96425.00;4992458;28;20290;-87
2023/06/24 11:09:54;;;;;;;3.50;3.30;;;;;;;26.90;33.63;96422.97;4990135;28;20235;-87
2023/06/24 11:12:26;;;;;;;4.53;3.33;;;;;;;26.97;34.02;96420.09;4992461;28;20683;-87
2023/06/24 11:14:56;;;;;;;3.97;3.60;;;;;;;27.07;33.93;96418.28;4992552;28;20231;-87
2023/06/24 11:17:22;;;;;;;4.85;4.45;;;;;;;26.99;32.90;96413.50;4988167;28;20220;-87
2023/06/24 11:19:49;;;;;;;3.42;3.15;;;;;;;27.06;33.20;96411.41;4987913;28;20716;-87
2023/06/24 11:22:16;;;;;;;3.10;2.90;;;;;;;27.30;33.45;96406.44;4992542;28;20671;-88
2023/06/24 11:24:42;;;;;;;3.42;3.22;;;;;;;27.39;33.37;96401.41;4996736;28;20238;-87
2023/06/24 11:27:09;;;;;;;3.47;3.17;;;;;;;27.38;32.85;96394.53;4986935;28;20210;-87
2023/06/24 11:29:37;;;;;;;5.93;3.55;;;;;;;26.69;32.86;96398.31;4992619;28;20234;-87
2023/06/24 11:32:20;;;;;;;10.25;8.25;;;;;;;26.16;34.70;96386.13;4991984;28;20203;-87
2023/06/24 11:34:48;;;;;;;6.97;6.20;;;;;;;26.01;34.92;96394.72;4992021;28;20254;-87
2023/06/24 11:37:15;;;;;;;8.27;6.15;;;;;;;26.36;35.08;96385.50;4991980;28;20227;-87
2023/06/24 11:39:45;;;;;;;3.28;2.83;;;;;;;26.77;33.97;96381.16;4992180;28;20230;-87
2023/06/24 11:42:14;;;;;;;4.78;4.28;;;;;;;26.93;34.37;96374.06;4990087;28;20692;-87
2023/06/24 11:44:45;;;;;;;26.63;19.00;;;;;;;26.63;34.88;96375.56;4991791;28;20210;-87
2023/06/24 11:47:12;;;;;;;8.70;6.60;;;;;;;26.43;36.44;96373.63;4992119;28;20640;-88
2023/06/24 11:49:57;;;;;;;5.78;5.07;;;;;;;26.23;35.00;96375.34;4991992;28;20250;-87
2023/06/24 11:52:32;;;;;;;4.95;4.40;;;;;;;26.02;35.03;96363.84;4992202;28;20203;-87
2023/06/24 11:55:01;;;;;;;3.85;3.47;;;;;;;26.45;34.15;96368.09;4991792;28;20576;-87
2023/06/24 11:57:52;;;;;;;3.50;3.28;;;;;;;26.75;34.94;96364.75;4991968;28;20261;-87
2023/06/24 12:00:31;;;;;;;4.60;4.20;;;;;;;26.82;34.85;96360.03;4990903;28;20298;-87
2023/06/24 12:02:59;;;;;;;6.07;5.47;;;;;;;26.52;34.96;96358.09;4991927;28;20330;-87
2023/06/24 12:05:29;;;;;;;5.55;5.03;;;;;;;26.24;36.21;96353.97;4991720;28;20589;-87
2023/06/24 12:07:57;;;;;;;9.43;8.45;;;;;;;26.07;36.92;96358.63;4991325;28;20220;-87
2023/06/24 12:10:28;;;;;;;5.72;5.18;;;;;;;25.92;37.91;96353.25;4990657;28;20382;-87
2023/06/24 12:12:56;;;;;;;4.15;3.78;;;;;;;26.40;37.40;96352.22;4983728;28;20263;-88
2023/06/24 12:15:24;;;;;;;3.60;3.30;;;;;;;26.89;35.07;96343.94;4989399;28;20207;-88
2023/06/24 12:17:51;;;;;;;3.85;3.55;;;;;;;27.20;35.62;96342.94;4991070;28;20887;-85
2023/06/24 12:20:17;;;;;;;3.55;3.17;;;;;;;27.58;34.35;96343.50;4995704;28;20234;-89
2023/06/24 12:22:45;;;;;;;3.60;3.30;;;;;;;27.77;34.16;96341.91;4981859;28;20612;-89
2023/06/24 12:25:12;;;;;;;3.50;3.20;;;;;;;27.98;33.70;96334.72;4991691;28;20207;-88
2023/06/24 12:27:39;;;;;;;3.25;3.00;;;;;;;27.97;33.34;96335.78;4990705;28;20196;-87
2023/06/24 12:30:07;;;;;;;4.43;3.60;;;;;;;28.19;32.25;96336.25;4989640;28;20210;-86
2023/06/24 12:32:35;;;;;;;3.47;2.80;;;;;;;28.26;32.34;96330.72;4990297;28;20214;-86
2023/06/24 12:35:02;;;;;;;2.88;2.67;;;;;;;28.38;32.95;96331.19;4990382;28;20740;-86
2023/06/24 12:37:31;;;;;;;3.25;2.80;;;;;;;28.45;32.20;96315.81;4990494;28;20234;-89
2023/06/24 12:39:58;;;;;;;3.72;3.42;;;;;;;28.56;31.93;96314.69;4991017;28;20316;-86
2023/06/24 12:42:25;;;;;;;3.35;3.10;;;;;;;28.56;31.70;96313.91;4990625;28;20315;-89
2023/06/24 12:44:54;;;;;;;3.30;3.00;;;;;;;28.53;31.91;96310.72;4990555;28;20215;-87
2023/06/24 12:47:20;;;;;;;3.05;2.80;;;;;;;28.51;31.72;96306.75;4988809;28;20286;-89
2023/06/24 12:49:48;;;;;;;3.10;2.90;;;;;;;28.51;31.55;96310.19;4989995;28;20231;-87
2023/06/24 12:52:15;;;;;;;3.20;2.90;;;;;;;28.68;31.62;96296.59;4990467;28;20218;-87
2023/06/24 12:54:44;;;;;;;3.75;2.70;;;;;;;28.77;31.03;96308.22;4990132;28;20673;-88
2023/06/24 12:57:11;;;;;;;3.83;2.78;;;;;;;28.77;31.63;96297.63;4990402;28;20211;-87